createdAt,value
2022-08-17T00:02:26.439Z,35.13
2022-08-17T00:04:54.965Z,28.23
2022-08-17T00:07:22.373Z,31.52
2022-08-17T00:09:49.229Z,32.67
2022-08-17T00:12:42.701Z,35.50
2022-08-17T00:15:06.208Z,39.20
2022-08-17T00:17:38.101Z,44.95
2022-08-17T00:20:06.070Z,50.65
2022-08-17T00:22:36.498Z,45.08
2022-08-17T00:25:15.257Z,44.20
2022-08-17T00:27:42.400Z,45.50
2022-08-17T00:30:12.297Z,48.33
2022-08-17T00:33:14.105Z,48.63
2022-08-17T00:35:30.789Z,48.33
2022-08-17T00:37:57.642Z,51.92
2022-08-17T00:40:24.604Z,48.15
2022-08-17T00:42:51.960Z,52.08
2022-08-17T00:45:20.425Z,51.70
2022-08-17T00:47:47.821Z,44.90
2022-08-17T00:50:18.071Z,43.88
2022-08-17T00:52:54.936Z,44.47
2022-08-17T00:55:24.324Z,40.38
2022-08-17T00:57:56.491Z,40.17
2022-08-17T01:00:33.935Z,31.35
2022-08-17T01:03:08.845Z,37.97
2022-08-17T01:05:42.299Z,30.08
2022-08-17T01:08:13.508Z,26.73
2022-08-17T01:10:59.456Z,39.22
2022-08-17T01:13:40.759Z,32.22
2022-08-17T01:16:28.722Z,33.28
2022-08-17T01:19:02.509Z,29.58
2022-08-17T01:21:53.270Z,31.85
2022-08-17T01:24:20.064Z,29.65
2022-08-17T01:26:47.611Z,33.83
2022-08-17T01:29:16.550Z,29.35
2022-08-17T01:31:54.033Z,30.08
2022-08-17T01:34:21.728Z,29.85
2022-08-17T01:36:50.317Z,38.78
2022-08-17T01:39:39.243Z,44.25
2022-08-17T01:42:26.680Z,32.42
2022-08-17T01:44:58.954Z,35.45
2022-08-17T01:47:25.873Z,33.92
2022-08-17T01:49:52.772Z,36.53
2022-08-17T01:52:21.960Z,35.00
2022-08-17T01:54:50.273Z,31.65
2022-08-17T01:57:17.309Z,30.73
2022-08-17T01:59:44.171Z,30.15
2022-08-17T02:02:11.274Z,35.92
2022-08-17T02:04:56.965Z,40.20
2022-08-17T02:07:26.040Z,39.63
2022-08-17T02:09:53.917Z,43.10
2022-08-17T02:12:38.443Z,34.60
2022-08-17T02:15:09.791Z,35.03
2022-08-17T02:17:36.602Z,37.10
2022-08-17T02:20:04.653Z,35.17
2022-08-17T02:22:31.426Z,31.50
2022-08-17T02:25:02.179Z,33.17
2022-08-17T02:27:29.760Z,33.05
2022-08-17T02:29:57.511Z,29.40
2022-08-17T02:32:27.841Z,31.88
2022-08-17T02:34:57.296Z,31.85
2022-08-17T02:37:26.286Z,31.55
2022-08-17T02:39:53.174Z,30.00
2022-08-17T02:42:28.070Z,30.52
2022-08-17T02:44:55.161Z,30.20
2022-08-17T02:47:22.299Z,32.00
2022-08-17T02:49:49.379Z,35.10
2022-08-17T02:52:42.881Z,32.53
2022-08-17T02:55:28.835Z,32.10
2022-08-17T02:57:55.933Z,33.45
2022-08-17T03:00:34.260Z,35.00
2022-08-17T03:03:03.334Z,34.30
2022-08-17T03:05:33.415Z,33.50
2022-08-17T03:08:01.174Z,32.30
2022-08-17T03:10:29.645Z,34.30
2022-08-17T03:12:56.610Z,33.00
2022-08-17T03:15:33.673Z,33.60
2022-08-17T03:18:02.304Z,34.97
2022-08-17T03:20:32.814Z,33.85
2022-08-17T03:23:02.895Z,35.30
2022-08-17T03:25:38.279Z,32.63
2022-08-17T03:28:06.890Z,35.67
2022-08-17T03:30:34.349Z,33.33
2022-08-17T03:33:05.080Z,37.35
2022-08-17T03:35:34.304Z,38.63
2022-08-17T03:38:01.438Z,32.72
2022-08-17T03:40:34.549Z,38.88
2022-08-17T03:43:18.069Z,32.42
2022-08-17T03:46:03.107Z,31.77
2022-08-17T03:48:49.105Z,33.63
2022-08-17T03:51:42.973Z,33.22
2022-08-17T03:54:29.389Z,32.13
2022-08-17T03:57:04.750Z,32.35
2022-08-17T03:59:32.490Z,33.25
2022-08-17T04:02:21.506Z,44.20
2022-08-17T04:04:52.341Z,41.17
2022-08-17T04:07:21.657Z,30.60
2022-08-17T04:09:48.804Z,33.42
2022-08-17T04:12:22.512Z,31.75
2022-08-17T04:14:53.740Z,31.67
2022-08-17T04:17:28.855Z,34.88
2022-08-17T04:19:56.578Z,31.80
2022-08-17T04:22:32.314Z,29.73
2022-08-17T04:25:09.707Z,31.75
2022-08-17T04:27:36.922Z,28.63
2022-08-17T04:30:07.179Z,30.42
2022-08-17T04:33:00.829Z,30.67
2022-08-17T04:35:48.875Z,36.88
2022-08-17T04:38:29.355Z,34.70
2022-08-17T04:41:16.435Z,38.42
2022-08-17T04:43:45.364Z,39.53
2022-08-17T04:46:19.720Z,36.67
2022-08-17T04:48:51.776Z,29.60
2022-08-17T04:51:29.789Z,24.38
2022-08-17T04:54:01.563Z,23.38
2022-08-17T04:56:30.338Z,22.20
2022-08-17T04:59:08.838Z,22.17
2022-08-17T05:01:39.029Z,21.08
2022-08-17T05:04:32.866Z,20.55
2022-08-17T05:06:57.502Z,16.50
2022-08-17T05:09:24.408Z,16.50
2022-08-17T05:11:51.269Z,17.88
2022-08-17T05:14:18.056Z,16.38
2022-08-17T05:16:45.761Z,17.05
2022-08-17T05:19:12.562Z,15.93
2022-08-17T05:21:39.404Z,15.13
2022-08-17T05:24:35.443Z,15.38
2022-08-17T05:26:53.085Z,18.48
2022-08-17T05:29:22.103Z,21.02
2022-08-17T05:32:37.897Z,24.58
2022-08-17T05:59:34.136Z,30.30
2022-08-17T06:02:15.890Z,28.75
2022-08-17T06:05:06.095Z,29.45
2022-08-17T06:08:22.077Z,30.65
2022-08-17T06:11:03.289Z,28.83
2022-08-17T06:13:52.205Z,29.85
2022-08-17T06:16:34.128Z,27.98
2022-08-17T06:19:43.381Z,28.30
2022-08-17T06:22:13.691Z,25.38
2022-08-17T06:24:56.650Z,26.38
2022-08-17T06:27:47.514Z,23.60
2022-08-17T06:30:29.410Z,20.50
2022-08-17T06:33:29.562Z,20.40
2022-08-17T06:36:16.058Z,18.77
2022-08-17T06:39:04.431Z,19.70
2022-08-17T06:42:06.347Z,17.70
2022-08-17T06:47:49.648Z,20.92
2022-08-17T06:50:35.931Z,16.10
2022-08-17T06:53:35.578Z,15.20
2022-08-17T06:56:08.696Z,17.73
2022-08-17T06:58:38.914Z,17.98
2022-08-17T07:01:28.685Z,19.88
2022-08-17T07:04:11.608Z,16.70
2022-08-17T07:07:31.376Z,16.00
2022-08-17T07:10:01.154Z,17.75
2022-08-17T07:12:37.461Z,16.63
2022-08-17T07:15:15.593Z,17.83
2022-08-17T07:17:47.587Z,16.38
2022-08-17T07:20:20.489Z,18.58
2022-08-17T07:23:04.522Z,15.90
2022-08-17T07:25:32.454Z,15.88
2022-08-17T07:28:05.301Z,16.75
2022-08-17T07:30:48.865Z,18.67
2022-08-17T07:35:48.244Z,19.90
2022-08-17T07:38:32.530Z,16.42
2022-08-17T07:41:05.990Z,17.08
2022-08-17T07:43:47.616Z,17.50
2022-08-17T07:46:42.062Z,17.05
2022-08-17T07:49:14.588Z,20.30
2022-08-17T07:51:44.105Z,18.73
2022-08-17T07:54:22.252Z,19.02
2022-08-17T07:57:13.852Z,18.50
2022-08-17T07:59:44.459Z,19.73
2022-08-17T08:02:34.320Z,19.52
2022-08-17T08:05:44.326Z,19.13
2022-08-17T08:08:25.846Z,23.52
2022-08-17T08:11:08.780Z,22.20
2022-08-17T08:13:42.556Z,19.17
2022-08-17T08:16:29.661Z,20.15
2022-08-17T08:19:01.028Z,20.45
2022-08-17T08:24:44.882Z,22.63
2022-08-17T08:27:35.810Z,22.83
2022-08-17T08:30:29.739Z,23.70
2022-08-17T08:33:29.820Z,22.38
2022-08-17T08:36:56.997Z,22.23
2022-08-17T08:39:51.381Z,20.15
2022-08-17T08:42:44.897Z,21.15
2022-08-17T08:45:32.122Z,23.27
2022-08-17T08:49:12.188Z,20.40
2022-08-17T08:51:58.104Z,21.05
2022-08-17T08:54:38.790Z,20.20
2022-08-17T08:57:25.579Z,20.83
2022-08-17T09:00:19.983Z,22.43
2022-08-17T09:03:19.975Z,22.00
2022-08-17T09:06:32.616Z,23.15
2022-08-17T09:09:18.277Z,20.35
2022-08-17T09:12:15.228Z,18.23
2022-08-17T09:14:54.900Z,19.08
2022-08-17T09:17:44.765Z,21.20
2022-08-17T09:20:28.147Z,20.77
2022-08-17T09:23:19.599Z,16.60
2022-08-17T09:25:55.239Z,20.20
2022-08-17T09:28:36.837Z,19.05
2022-08-17T09:31:18.106Z,19.00
2022-08-17T09:36:26.564Z,15.45
2022-08-17T09:39:14.127Z,16.90
2022-08-17T09:42:06.384Z,18.67
2022-08-17T09:44:44.296Z,19.15
2022-08-17T09:47:45.290Z,19.27
2022-08-17T09:50:20.090Z,16.50
2022-08-17T09:53:08.199Z,18.80
2022-08-17T09:56:09.176Z,16.58
2022-08-17T09:59:00.625Z,17.77
2022-08-17T10:01:54.104Z,18.67
2022-08-17T10:04:56.338Z,19.75
2022-08-17T10:07:31.918Z,20.30
2022-08-17T10:11:12.645Z,20.75
2022-08-17T10:13:53.102Z,37.33
2022-08-17T10:16:30.996Z,32.00
2022-08-17T10:19:03.719Z,29.02
2022-08-17T10:22:01.369Z,23.73
2022-08-17T10:25:23.227Z,33.63
2022-08-17T10:28:20.102Z,45.88
2022-08-17T10:31:10.525Z,37.33
2022-08-17T10:34:09.472Z,44.97
2022-08-17T10:37:07.244Z,38.47
2022-08-17T10:39:52.022Z,39.88
2022-08-17T10:42:59.023Z,39.50
2022-08-17T10:46:21.320Z,48.97
2022-08-17T10:48:43.358Z,65.35
2022-08-17T10:51:38.001Z,70.15
2022-08-17T10:54:22.342Z,70.72
2022-08-17T10:56:50.983Z,87.18
2022-08-17T10:59:36.053Z,90.25
2022-08-17T11:02:27.370Z,81.70
2022-08-17T11:05:00.042Z,62.25
2022-08-17T11:07:51.722Z,79.63
2022-08-17T11:14:11.082Z,72.95
2022-08-17T11:17:14.492Z,75.88
2022-08-17T11:20:02.275Z,67.47
2022-08-17T11:22:47.387Z,64.88
2022-08-17T11:25:18.426Z,65.50
2022-08-17T11:27:53.511Z,66.22
2022-08-17T11:30:57.035Z,60.35
2022-08-17T11:33:30.434Z,70.10
2022-08-17T11:36:58.127Z,62.55
2022-08-17T11:40:17.408Z,83.22
2022-08-17T11:42:59.195Z,74.80
2022-08-17T11:45:58.223Z,77.30
2022-08-17T11:49:04.895Z,55.63
2022-08-17T11:52:06.913Z,51.25
2022-08-17T11:54:47.795Z,47.25
2022-08-17T11:57:40.542Z,46.20
2022-08-17T12:00:30.106Z,48.63
2022-08-17T12:03:24.696Z,43.80
2022-08-17T12:06:06.066Z,38.00
2022-08-17T12:08:43.297Z,39.90
2022-08-17T12:12:11.336Z,40.05
2022-08-17T12:14:51.667Z,34.45
2022-08-17T12:17:40.532Z,33.63
2022-08-17T12:20:39.941Z,36.38
2022-08-17T12:23:36.456Z,28.90
2022-08-17T12:26:19.773Z,38.42
2022-08-17T12:28:57.395Z,33.05
2022-08-17T12:31:31.655Z,31.92
2022-08-17T12:34:00.347Z,30.67
2022-08-17T12:36:28.424Z,32.35
2022-08-17T12:39:14.287Z,31.83
2022-08-17T12:41:46.756Z,45.63
2022-08-17T12:44:28.537Z,31.98
2022-08-17T12:47:04.532Z,39.00
2022-08-17T12:49:37.877Z,33.30
2022-08-17T12:52:23.555Z,34.47
2022-08-17T12:54:59.898Z,34.30
2022-08-17T12:57:39.043Z,32.30
2022-08-17T13:00:16.174Z,36.25
2022-08-17T13:02:45.661Z,34.88
2022-08-17T13:05:39.466Z,35.05
2022-08-17T13:08:18.064Z,33.50
2022-08-17T13:11:05.833Z,36.53
2022-08-17T13:13:38.349Z,39.05
2022-08-17T13:16:15.820Z,36.53
2022-08-17T13:18:52.172Z,41.08
2022-08-17T13:21:18.933Z,44.17
2022-08-17T13:24:02.470Z,44.17
2022-08-17T13:27:00.929Z,51.45
2022-08-17T13:29:57.483Z,59.88
2022-08-17T13:32:44.002Z,64.72
2022-08-17T13:35:50.529Z,70.10
2022-08-17T13:38:47.084Z,59.05
2022-08-17T13:41:37.016Z,65.22
2022-08-17T13:44:39.119Z,65.50
2022-08-17T13:47:17.888Z,60.25
2022-08-17T13:49:48.750Z,66.55
2022-08-17T13:55:19.890Z,56.88
2022-08-17T14:00:29.876Z,64.88
2022-08-17T14:02:59.131Z,50.15
2022-08-17T14:05:26.852Z,44.65
2022-08-17T14:08:06.789Z,39.60
2022-08-17T14:10:36.276Z,44.42
2022-08-17T14:13:03.352Z,42.65
2022-08-17T14:15:54.853Z,29.13
2022-08-17T14:18:18.883Z,31.35
2022-08-17T14:21:04.638Z,27.35
2022-08-17T14:23:32.820Z,23.92
2022-08-17T14:25:59.765Z,22.27
2022-08-17T14:28:27.846Z,24.55
2022-08-17T14:30:55.390Z,21.13
2022-08-17T14:33:24.567Z,22.67
2022-08-17T14:35:52.874Z,19.60
2022-08-17T14:38:20.940Z,18.70
2022-08-17T14:40:48.160Z,20.42
2022-08-17T14:43:15.787Z,18.40
2022-08-17T14:45:43.279Z,19.17
2022-08-17T14:48:10.846Z,21.70
2022-08-17T14:50:41.796Z,19.35
2022-08-17T14:53:14.210Z,17.42
2022-08-17T14:55:41.098Z,19.00
2022-08-17T14:58:09.083Z,18.83
2022-08-17T15:00:36.437Z,20.08
2022-08-17T15:03:03.435Z,21.60
2022-08-17T15:05:36.778Z,20.88
2022-08-17T15:08:05.407Z,22.17
2022-08-17T15:10:33.326Z,22.98
2022-08-17T15:13:00.564Z,20.25
2022-08-17T15:15:28.622Z,19.88
2022-08-17T15:17:55.690Z,21.75
2022-08-17T15:20:27.783Z,20.10
2022-08-17T15:22:56.039Z,20.50
2022-08-17T15:25:25.603Z,19.83
2022-08-17T15:27:52.742Z,20.52
2022-08-17T15:30:20.661Z,19.98
2022-08-17T15:32:51.294Z,21.35
2022-08-17T15:35:29.400Z,18.63
2022-08-17T15:38:10.743Z,14.65
2022-08-17T15:40:44.021Z,15.23
2022-08-17T15:43:24.805Z,19.63
2022-08-17T15:46:12.513Z,17.38
2022-08-17T15:48:42.457Z,17.13
2022-08-17T15:51:30.998Z,18.23
2022-08-17T15:54:04.537Z,17.30
2022-08-17T15:56:46.329Z,18.77
2022-08-17T15:59:13.097Z,18.88
2022-08-17T16:03:15.105Z,20.20
2022-08-17T16:04:30.802Z,16.65
2022-08-17T16:06:58.759Z,16.05
2022-08-17T16:09:25.553Z,15.25
2022-08-17T16:11:55.452Z,17.10
2022-08-17T16:14:30.343Z,17.33
2022-08-17T16:17:02.426Z,16.17
2022-08-17T16:19:29.206Z,15.95
2022-08-17T16:21:55.989Z,18.48
2022-08-17T16:24:22.747Z,18.75
2022-08-17T16:26:49.531Z,21.08
2022-08-17T16:29:16.651Z,19.08
2022-08-17T16:31:43.489Z,17.42
2022-08-17T16:34:17.696Z,21.63
2022-08-17T16:36:54.836Z,19.38
2022-08-17T16:39:27.341Z,16.52
2022-08-17T16:44:22.632Z,18.48
2022-08-17T16:46:50.195Z,20.40
2022-08-17T16:49:29.667Z,17.92
2022-08-17T16:52:11.620Z,18.13
2022-08-17T16:54:44.376Z,17.42
2022-08-17T16:57:12.811Z,17.00
2022-08-17T16:59:42.507Z,18.10
2022-08-17T17:02:15.606Z,19.67
2022-08-17T17:05:35.687Z,19.17
2022-08-17T17:08:13.003Z,20.63
2022-08-17T17:10:46.982Z,21.23
2022-08-17T17:13:26.239Z,23.30
2022-08-17T17:16:21.758Z,19.90
2022-08-17T17:19:17.934Z,19.70
2022-08-17T17:22:16.439Z,20.13
2022-08-17T17:24:54.982Z,22.23
2022-08-17T17:28:14.467Z,20.27
2022-08-17T17:30:47.310Z,25.40
2022-08-17T17:33:24.912Z,23.40
2022-08-17T17:35:59.612Z,22.75
2022-08-17T17:38:46.756Z,21.23
2022-08-17T17:41:28.975Z,25.20
2022-08-17T17:44:13.226Z,23.67
2022-08-17T17:46:59.186Z,23.92
2022-08-17T17:49:38.705Z,24.45
2022-08-17T17:52:19.085Z,26.15
2022-08-17T17:55:27.907Z,26.63
2022-08-17T17:58:32.434Z,30.88
2022-08-17T18:01:26.961Z,35.40
2022-08-17T18:04:27.690Z,33.55
2022-08-17T18:07:05.971Z,34.63
2022-08-17T18:10:01.194Z,31.92
2022-08-17T18:15:51.277Z,30.13
2022-08-17T18:18:18.029Z,35.65
2022-08-17T18:20:53.874Z,35.17
2022-08-17T18:23:28.180Z,34.08
2022-08-17T18:25:56.063Z,34.15
2022-08-17T18:28:35.708Z,37.38
2022-08-17T18:31:14.341Z,36.25
2022-08-17T18:33:45.295Z,32.55
2022-08-17T18:36:25.176Z,43.15
2022-08-17T18:39:10.891Z,51.75
2022-08-17T18:41:49.717Z,50.72
2022-08-17T18:44:34.060Z,51.40
2022-08-17T18:47:25.066Z,62.10
2022-08-17T18:49:59.179Z,79.10
2022-08-17T18:52:28.015Z,79.00
2022-08-17T18:55:15.490Z,58.72
2022-08-17T18:57:47.510Z,64.90
2022-08-17T19:00:35.346Z,51.38
2022-08-17T19:03:24.845Z,49.10
2022-08-17T19:06:32.265Z,42.75
2022-08-17T19:09:00.834Z,45.63
2022-08-17T19:11:32.329Z,42.88
2022-08-17T19:16:59.219Z,50.97
2022-08-17T19:19:49.265Z,47.47
2022-08-17T19:22:57.965Z,48.10
2022-08-17T19:25:35.958Z,49.28
2022-08-17T19:28:22.413Z,49.30
2022-08-17T19:31:04.423Z,46.28
2022-08-17T19:33:32.110Z,44.90
2022-08-17T19:36:18.635Z,54.08
2022-08-17T19:38:53.011Z,49.13
2022-08-17T19:41:29.998Z,57.08
2022-08-17T19:44:46.375Z,62.00
2022-08-17T19:47:57.181Z,59.55
2022-08-17T19:50:56.590Z,65.15
2022-08-17T19:54:04.271Z,64.78
2022-08-17T19:56:42.878Z,68.40
2022-08-17T19:59:41.322Z,64.45
2022-08-17T20:02:57.664Z,67.18
2022-08-17T20:05:54.669Z,77.00
2022-08-17T20:08:31.602Z,68.55
2022-08-17T20:11:10.773Z,63.13
2022-08-17T20:14:03.612Z,72.82
2022-08-17T20:16:33.092Z,103.97
2022-08-17T20:19:06.095Z,68.53
2022-08-17T20:21:52.453Z,66.85
2022-08-17T20:24:26.492Z,91.70
2022-08-17T20:26:58.690Z,89.90
2022-08-17T20:30:11.315Z,55.88
2022-08-17T20:35:30.352Z,79.45
2022-08-17T20:38:10.374Z,80.53
2022-08-17T20:40:54.418Z,65.15
2022-08-17T20:43:45.183Z,68.55
2022-08-17T20:46:37.343Z,64.65
2022-08-17T20:49:34.773Z,68.93
2022-08-17T20:52:13.380Z,78.35
2022-08-17T20:54:52.289Z,67.80
2022-08-17T20:57:31.475Z,81.78
2022-08-17T21:00:17.344Z,71.63
2022-08-17T21:02:50.357Z,61.97
2022-08-17T21:05:34.381Z,60.92
2022-08-17T21:08:28.372Z,80.10
2022-08-17T21:10:57.817Z,66.80
2022-08-17T21:14:28.647Z,71.13
2022-08-17T21:17:29.466Z,81.23
2022-08-17T21:20:32.208Z,79.10
2022-08-17T21:23:13.629Z,86.20
2022-08-17T21:26:17.413Z,90.30
2022-08-17T21:29:30.307Z,91.78
2022-08-17T21:31:59.456Z,85.78
2022-08-17T21:34:33.532Z,91.22
2022-08-17T21:37:22.342Z,86.95
2022-08-17T21:40:21.636Z,97.38
2022-08-17T21:43:23.539Z,94.60
2022-08-17T21:46:12.491Z,105.20
2022-08-17T21:48:48.256Z,106.72
2022-08-17T21:51:27.285Z,96.68
2022-08-17T21:54:00.476Z,118.28
2022-08-17T21:56:36.151Z,98.30
2022-08-17T21:59:19.735Z,113.22
2022-08-17T22:02:02.454Z,139.20
2022-08-17T22:04:36.613Z,125.28
2022-08-17T22:07:08.167Z,115.22
2022-08-17T22:09:47.285Z,124.32
2022-08-17T22:12:17.024Z,110.70
2022-08-17T22:14:56.420Z,100.13
2022-08-17T22:17:31.206Z,96.38
2022-08-17T22:20:16.720Z,124.20
2022-08-17T22:23:04.927Z,106.15
2022-08-17T22:25:38.545Z,96.63
2022-08-17T22:28:11.861Z,91.18
2022-08-17T22:30:40.922Z,117.03
2022-08-17T22:33:52.721Z,114.45
2022-08-17T22:36:31.366Z,164.00
2022-08-17T22:39:08.289Z,120.72
2022-08-17T22:42:00.048Z,121.65
2022-08-17T22:44:37.455Z,111.88
2022-08-17T22:47:19.102Z,111.18
2022-08-17T22:49:59.174Z,133.23
2022-08-17T22:52:33.171Z,122.80
2022-08-17T22:55:20.285Z,121.78
2022-08-17T22:58:07.139Z,135.75
2022-08-17T23:00:46.233Z,192.45
2022-08-17T23:03:24.515Z,147.95
2022-08-17T23:06:10.977Z,133.27
2022-08-17T23:08:51.230Z,144.45
2022-08-17T23:11:17.989Z,139.30
2022-08-17T23:13:44.885Z,138.32
2022-08-17T23:16:11.666Z,236.63
2022-08-17T23:18:38.411Z,127.95
2022-08-17T23:21:07.225Z,121.85
2022-08-17T23:23:34.819Z,120.70
2022-08-17T23:26:01.914Z,121.32
2022-08-17T23:28:28.649Z,210.20
2022-08-17T23:30:56.291Z,143.18
2022-08-17T23:33:31.425Z,173.30
2022-08-17T23:35:58.760Z,256.25
2022-08-17T23:38:27.150Z,144.82
2022-08-17T23:40:55.257Z,139.13
2022-08-17T23:43:25.476Z,282.20
2022-08-17T23:45:56.037Z,155.50
2022-08-17T23:48:36.188Z,138.77
2022-08-17T23:51:08.906Z,273.50
2022-08-17T23:53:37.694Z,265.48
2022-08-17T23:56:09.252Z,132.93
2022-08-17T23:58:39.519Z,149.82
